Gibson Island, Maryland
Current Conditions -  °F | °C
As of 10:54 PM on Friday 19 Dec 2014 (Local Time) from KNAK Reporting Station
Clear Clear  
Wind Chill: 29°   Ceiling: Unl
Heat Index: 34°   Visibility: 10mi
Dew Point: 23°   Wind: 6mph
Humidity: 64%   Direction: 300°WNW
Pressure: 30.25"   Gusts: NA
Location:  39.08°N, 76.43°W
Report Text: KNAK 200354Z AUTO 30005KT 10SM CLR 01/M05 A3025 RMK AO2 SLP244 T00111050
Loading
Personal Weather Stations






























Interactive Weather Map New forecast layout! Learn more

10-Day Weather Forecast

Advertisements
Track Severe Weather on mobile